createdAt,value
2019-03-16T00:00:15.437Z,10.70
2019-03-16T00:02:44.540Z,10.60
2019-03-16T00:05:13.942Z,10.50
2019-03-16T00:07:42.935Z,10.50
2019-03-16T00:10:11.868Z,10.50
2019-03-16T00:12:40.922Z,10.50
2019-03-16T00:15:10.176Z,10.50
2019-03-16T00:17:39.090Z,10.50
2019-03-16T00:20:11.876Z,10.50
2019-03-16T00:22:41.002Z,10.60
2019-03-16T00:25:10.914Z,10.60
2019-03-16T00:27:39.803Z,10.60
2019-03-16T00:30:13.113Z,10.60
2019-03-16T00:32:42.094Z,10.70
2019-03-16T00:35:11.077Z,10.60
2019-03-16T00:37:40.082Z,10.40
2019-03-16T00:40:13.958Z,10.50
2019-03-16T00:42:42.780Z,10.20
2019-03-16T00:45:12.580Z,9.70
2019-03-16T00:47:41.460Z,9.40
2019-03-16T00:50:11.990Z,9.20
2019-03-16T00:52:41.009Z,9.10
2019-03-16T00:55:10.663Z,9.00
2019-03-16T00:57:39.585Z,9.00
2019-03-16T01:00:11.580Z,8.90
2019-03-16T01:02:40.880Z,8.90
2019-03-16T01:05:10.798Z,8.90
2019-03-16T01:07:39.565Z,8.80
2019-03-16T01:10:10.119Z,8.80
2019-03-16T01:12:38.979Z,8.80
2019-03-16T01:15:10.562Z,8.70
2019-03-16T01:17:39.457Z,8.70
2019-03-16T01:20:10.600Z,8.60
2019-03-16T01:22:39.441Z,8.70
2019-03-16T01:25:09.519Z,8.60
2019-03-16T01:27:38.504Z,8.60
2019-03-16T01:30:10.237Z,8.60
2019-03-16T01:32:40.872Z,9.60
2019-03-16T01:35:09.889Z,10.00
2019-03-16T01:37:38.755Z,10.10
2019-03-16T01:40:10.134Z,10.00
2019-03-16T01:42:38.937Z,10.10
2019-03-16T01:45:09.640Z,10.10
2019-03-16T01:47:38.443Z,10.10
2019-03-16T01:50:09.795Z,10.10
2019-03-16T01:52:38.684Z,10.20
2019-03-16T01:55:09.206Z,10.20
2019-03-16T01:57:38.084Z,10.20
2019-03-16T02:00:11.714Z,10.10
2019-03-16T02:02:53.831Z,10.10
2019-03-16T02:05:11.109Z,10.20
2019-03-16T02:07:40.024Z,10.20
2019-03-16T02:10:10.145Z,10.20
2019-03-16T02:12:39.007Z,10.30
2019-03-16T02:15:08.823Z,10.20
2019-03-16T02:17:37.614Z,10.20
2019-03-16T02:20:08.447Z,10.10
2019-03-16T02:22:37.343Z,10.20
2019-03-16T02:25:08.212Z,10.20
2019-03-16T02:27:37.083Z,10.20
2019-03-16T02:30:13.582Z,10.10
2019-03-16T02:32:42.434Z,10.10
2019-03-16T02:35:11.510Z,10.10
2019-03-16T02:37:40.449Z,10.10
2019-03-16T02:40:11.187Z,9.90
2019-03-16T02:42:40.082Z,8.90
2019-03-16T02:45:11.028Z,8.40
2019-03-16T02:47:39.741Z,8.10
2019-03-16T02:50:10.591Z,7.90
2019-03-16T02:52:39.534Z,7.80
2019-03-16T02:55:09.349Z,7.50
2019-03-16T02:57:38.345Z,7.40
2019-03-16T03:00:12.256Z,7.30
2019-03-16T03:02:41.121Z,7.30
2019-03-16T03:05:10.646Z,7.30
2019-03-16T03:07:39.438Z,7.20
2019-03-16T03:10:11.424Z,7.20
2019-03-16T03:12:40.310Z,7.20
2019-03-16T03:15:10.159Z,7.20
2019-03-16T03:17:39.073Z,7.20
2019-03-16T03:20:09.636Z,7.20
2019-03-16T03:22:38.494Z,7.20
2019-03-16T03:25:07.417Z,7.20
2019-03-16T03:27:36.310Z,7.20
2019-03-16T03:30:08.699Z,7.20
2019-03-16T03:32:37.804Z,7.20
2019-03-16T03:35:08.341Z,7.20
2019-03-16T03:37:37.060Z,7.20
2019-03-16T03:40:10.601Z,7.20
2019-03-16T03:42:39.468Z,7.10
2019-03-16T03:45:10.656Z,7.00
2019-03-16T03:47:39.497Z,7.00
2019-03-16T03:50:11.366Z,6.90
2019-03-16T03:52:40.252Z,6.90
2019-03-16T03:55:11.129Z,6.80
2019-03-16T03:57:40.095Z,6.80
2019-03-16T04:00:12.190Z,6.70
2019-03-16T04:02:41.075Z,6.70
2019-03-16T04:05:09.966Z,6.70
2019-03-16T04:07:39.029Z,6.60
2019-03-16T04:10:09.465Z,6.60
2019-03-16T04:12:38.484Z,6.60
2019-03-16T04:15:09.706Z,6.50
2019-03-16T04:17:38.504Z,6.60
2019-03-16T04:20:10.237Z,6.50
2019-03-16T04:22:39.149Z,6.50
2019-03-16T04:25:08.075Z,6.50
2019-03-16T04:27:36.781Z,6.50
2019-03-16T04:30:07.483Z,6.50
2019-03-16T04:32:36.383Z,6.40
2019-03-16T04:35:06.177Z,6.40
2019-03-16T04:37:34.960Z,6.40
2019-03-16T04:40:04.508Z,6.40
2019-03-16T04:42:33.406Z,6.40
2019-03-16T04:45:02.682Z,6.40
2019-03-16T04:47:31.774Z,6.40
2019-03-16T04:50:00.637Z,6.40
2019-03-16T04:52:29.556Z,6.40
2019-03-16T04:54:58.451Z,6.40
2019-03-16T04:57:27.317Z,6.40
2019-03-16T04:59:56.233Z,6.30
2019-03-16T05:02:25.095Z,6.30
2019-03-16T05:04:54.021Z,6.30
2019-03-16T05:07:22.885Z,6.30
2019-03-16T05:09:51.782Z,6.30
2019-03-16T05:12:22.535Z,6.40
2019-03-16T05:14:51.250Z,6.30
2019-03-16T05:17:20.117Z,6.30
2019-03-16T05:19:48.974Z,6.30
2019-03-16T05:22:17.871Z,6.30
2019-03-16T05:24:46.788Z,6.30
2019-03-16T05:27:15.681Z,6.30
2019-03-16T05:29:44.574Z,6.30
2019-03-16T05:32:13.435Z,6.30
2019-03-16T05:34:55.559Z,6.30
2019-03-16T05:37:12.889Z,6.30
2019-03-16T05:39:41.698Z,6.20
2019-03-16T05:42:10.647Z,6.20
2019-03-16T05:44:39.535Z,6.20
2019-03-16T05:47:08.459Z,6.20
2019-03-16T05:49:37.315Z,6.20
2019-03-16T05:52:06.344Z,6.30
2019-03-16T05:54:35.094Z,6.30
2019-03-16T05:57:03.946Z,6.30
2019-03-16T05:59:32.793Z,6.40
2019-03-16T06:02:01.708Z,6.30
2019-03-16T06:04:31.831Z,6.30
2019-03-16T06:07:00.580Z,6.30
2019-03-16T06:09:29.407Z,6.30
2019-03-16T06:11:58.269Z,6.30
2019-03-16T06:14:27.191Z,6.30
2019-03-16T06:16:56.082Z,6.40
2019-03-16T06:19:24.973Z,6.40
2019-03-16T06:21:53.857Z,6.40
2019-03-16T06:24:22.776Z,6.40
2019-03-16T06:26:51.649Z,6.40
2019-03-16T06:29:20.564Z,6.50
2019-03-16T06:31:49.403Z,6.50
2019-03-16T06:34:18.428Z,6.60
2019-03-16T06:36:47.319Z,6.60
2019-03-16T06:39:16.282Z,6.60
2019-03-16T06:41:45.077Z,6.60
2019-03-16T06:44:13.994Z,6.60
2019-03-16T06:46:42.888Z,6.70
2019-03-16T06:49:11.779Z,6.70
2019-03-16T06:51:40.670Z,6.70
2019-03-16T06:54:09.563Z,6.70
2019-03-16T06:56:38.471Z,6.70
2019-03-16T06:59:07.346Z,6.70
2019-03-16T07:01:36.238Z,6.70
2019-03-16T07:04:05.250Z,6.70
2019-03-16T07:06:34.043Z,6.80
2019-03-16T07:09:03.125Z,6.80
2019-03-16T07:11:31.980Z,6.90
2019-03-16T07:14:00.978Z,6.80
2019-03-16T07:16:29.833Z,6.80
2019-03-16T07:18:59.213Z,6.80
2019-03-16T07:21:28.197Z,6.90
2019-03-16T07:23:57.053Z,6.90
2019-03-16T07:26:25.951Z,6.90
2019-03-16T07:28:54.869Z,6.80
2019-03-16T07:31:23.759Z,6.90
2019-03-16T07:33:52.657Z,6.90
2019-03-16T07:36:21.517Z,6.90
2019-03-16T07:38:50.521Z,7.00
2019-03-16T07:41:19.531Z,7.00
2019-03-16T07:43:48.325Z,7.00
2019-03-16T07:46:17.316Z,7.00
2019-03-16T07:48:46.108Z,7.00
2019-03-16T07:51:15.104Z,6.90
2019-03-16T07:53:44.197Z,7.00
2019-03-16T07:56:13.087Z,7.00
2019-03-16T07:58:41.980Z,7.00
2019-03-16T08:01:10.873Z,7.00
2019-03-16T08:03:39.762Z,7.10
2019-03-16T08:06:09.144Z,7.20
2019-03-16T08:08:38.163Z,7.20
2019-03-16T08:11:06.965Z,7.40
2019-03-16T08:13:35.766Z,8.20
2019-03-16T08:16:04.678Z,8.70
2019-03-16T08:18:33.525Z,9.20
2019-03-16T08:21:02.624Z,9.30
2019-03-16T08:23:31.672Z,9.30
2019-03-16T08:26:00.508Z,9.40
2019-03-16T08:28:29.384Z,9.40
2019-03-16T08:30:58.498Z,9.40
2019-03-16T08:33:27.392Z,9.40
2019-03-16T08:35:56.252Z,9.50
2019-03-16T08:38:25.241Z,9.50
2019-03-16T08:40:54.271Z,9.50
2019-03-16T08:43:23.247Z,9.50
2019-03-16T08:45:52.259Z,9.60
2019-03-16T08:48:23.003Z,9.60
2019-03-16T08:50:51.887Z,9.60
2019-03-16T08:53:22.898Z,9.70
2019-03-16T08:55:51.281Z,9.70
2019-03-16T08:58:20.407Z,9.70
2019-03-16T09:00:49.303Z,9.70
2019-03-16T09:03:18.700Z,9.80
2019-03-16T09:05:47.778Z,9.70
2019-03-16T09:08:16.898Z,9.70
2019-03-16T09:10:45.786Z,9.60
2019-03-16T09:13:14.884Z,9.60
2019-03-16T09:15:44.084Z,9.70
2019-03-16T09:18:13.083Z,9.80
2019-03-16T09:20:42.189Z,9.80
2019-03-16T09:23:11.171Z,9.90
2019-03-16T09:25:42.059Z,9.90
2019-03-16T09:28:18.584Z,9.90
2019-03-16T09:30:41.435Z,10.00
2019-03-16T09:33:10.443Z,10.00
2019-03-16T09:35:39.517Z,10.00
2019-03-16T09:38:08.619Z,10.00
2019-03-16T09:40:37.696Z,10.10
2019-03-16T09:43:06.707Z,10.00
2019-03-16T09:45:35.707Z,10.10
2019-03-16T09:48:04.863Z,10.20
2019-03-16T09:50:33.832Z,10.10
2019-03-16T09:53:02.896Z,10.20
2019-03-16T09:55:34.950Z,10.10
2019-03-16T09:58:02.482Z,10.10
2019-03-16T10:00:31.507Z,10.00
2019-03-16T10:03:00.535Z,10.00
2019-03-16T10:05:30.524Z,10.00
2019-03-16T10:07:59.604Z,10.00
2019-03-16T10:10:28.496Z,10.00
2019-03-16T10:12:57.379Z,9.90
2019-03-16T10:15:26.402Z,10.00
2019-03-16T10:17:55.412Z,10.00
2019-03-16T10:20:26.032Z,9.90
2019-03-16T10:22:55.017Z,9.90
2019-03-16T10:25:24.524Z,9.90
2019-03-16T10:27:53.518Z,9.80
2019-03-16T10:30:22.720Z,9.80
2019-03-16T10:32:53.617Z,9.70
2019-03-16T10:35:22.247Z,9.60
2019-03-16T10:37:52.777Z,9.60
2019-03-16T10:40:21.858Z,9.60
2019-03-16T10:42:50.760Z,9.70
2019-03-16T10:45:20.169Z,9.70
2019-03-16T10:47:49.058Z,9.60
2019-03-16T10:50:18.154Z,9.50
2019-03-16T10:52:47.047Z,9.50
2019-03-16T10:55:15.911Z,9.40
2019-03-16T10:57:45.033Z,9.40
2019-03-16T11:00:17.489Z,9.40
2019-03-16T11:02:46.812Z,9.30
2019-03-16T11:05:15.703Z,9.30
2019-03-16T11:07:44.803Z,9.30
2019-03-16T11:10:15.026Z,9.20
2019-03-16T11:12:44.078Z,9.20
2019-03-16T11:15:14.138Z,9.20
2019-03-16T11:17:43.131Z,9.30
2019-03-16T11:20:14.482Z,9.30
2019-03-16T11:22:43.457Z,9.30
2019-03-16T11:25:12.474Z,9.40
2019-03-16T11:27:41.362Z,9.60
2019-03-16T11:30:18.242Z,9.80
2019-03-16T11:32:47.218Z,10.00
2019-03-16T11:35:16.237Z,10.00
2019-03-16T11:37:45.543Z,10.00
2019-03-16T11:40:20.367Z,10.10
2019-03-16T11:42:49.671Z,10.20
2019-03-16T11:45:18.665Z,10.30
2019-03-16T11:47:47.552Z,10.30
2019-03-16T11:50:16.947Z,10.30
2019-03-16T11:52:46.408Z,10.30
2019-03-16T11:55:15.737Z,10.40
2019-03-16T11:57:44.762Z,10.40
2019-03-16T12:00:14.866Z,10.40
2019-03-16T12:02:44.392Z,10.40
2019-03-16T12:05:13.693Z,10.50
2019-03-16T12:07:42.986Z,10.50
2019-03-16T12:10:13.317Z,10.50
2019-03-16T12:12:42.409Z,10.50
2019-03-16T12:15:12.587Z,10.50
2019-03-16T12:17:41.835Z,10.50
2019-03-16T12:20:12.948Z,10.40
2019-03-16T12:22:41.821Z,10.40
2019-03-16T12:25:11.168Z,10.40
2019-03-16T12:27:40.277Z,10.40
2019-03-16T12:30:15.203Z,10.40
2019-03-16T12:32:44.071Z,10.40
2019-03-16T12:35:12.957Z,10.30
2019-03-16T12:37:42.183Z,10.30
2019-03-16T12:40:15.184Z,10.20
2019-03-16T12:42:44.267Z,10.20
2019-03-16T12:45:20.235Z,10.00
2019-03-16T12:47:48.002Z,10.00
2019-03-16T12:50:17.088Z,10.00
2019-03-16T12:52:46.389Z,9.90
2019-03-16T12:55:15.485Z,10.00
2019-03-16T12:57:44.385Z,10.00
2019-03-16T13:00:15.530Z,10.10
2019-03-16T13:02:44.823Z,10.10
2019-03-16T13:05:13.796Z,10.10
2019-03-16T13:07:42.960Z,10.10
2019-03-16T13:10:17.027Z,10.30
2019-03-16T13:12:46.535Z,10.40
2019-03-16T13:15:15.894Z,10.40
2019-03-16T13:17:45.142Z,10.40
2019-03-16T13:20:17.734Z,10.50
2019-03-16T13:22:46.812Z,10.80
2019-03-16T13:25:16.115Z,11.20
2019-03-16T13:27:45.216Z,10.90
2019-03-16T13:30:23.319Z,10.80
2019-03-16T13:32:52.327Z,10.70
2019-03-16T13:35:21.514Z,10.60
2019-03-16T13:37:50.491Z,10.70
2019-03-16T13:40:19.915Z,11.20
2019-03-16T13:42:49.008Z,11.40
2019-03-16T13:45:18.110Z,11.60
2019-03-16T13:47:47.201Z,11.90
2019-03-16T13:50:18.322Z,12.10
2019-03-16T13:52:47.860Z,12.30
2019-03-16T13:55:16.948Z,12.80
2019-03-16T13:57:46.048Z,13.00
2019-03-16T14:00:19.858Z,12.70
2019-03-16T14:02:48.953Z,12.20
2019-03-16T14:05:18.173Z,11.80
2019-03-16T14:07:47.456Z,11.70
2019-03-16T14:10:24.024Z,11.50
2019-03-16T14:12:53.325Z,11.60
2019-03-16T14:15:22.431Z,11.60
2019-03-16T14:17:51.520Z,11.60
2019-03-16T14:20:21.295Z,11.50
2019-03-16T14:22:50.735Z,11.40
2019-03-16T14:25:20.037Z,11.50
2019-03-16T14:27:49.164Z,11.50
2019-03-16T14:30:39.467Z,11.50
2019-03-16T14:32:50.410Z,11.40
2019-03-16T14:35:19.498Z,11.40
2019-03-16T14:37:48.595Z,11.40
2019-03-16T14:40:18.140Z,11.30
2019-03-16T14:42:47.402Z,11.20
2019-03-16T14:45:17.521Z,11.20
2019-03-16T14:47:46.616Z,11.20
2019-03-16T14:50:18.590Z,11.30
2019-03-16T14:52:48.092Z,11.30
2019-03-16T14:55:17.390Z,11.20
2019-03-16T14:57:46.692Z,11.20
2019-03-16T15:00:17.017Z,11.30
2019-03-16T15:02:46.909Z,11.30
2019-03-16T15:05:17.574Z,11.30
2019-03-16T15:07:49.551Z,11.20
2019-03-16T15:10:18.087Z,11.20
2019-03-16T15:12:47.214Z,11.20
2019-03-16T15:15:21.426Z,11.10
2019-03-16T15:17:50.733Z,11.00
2019-03-16T15:20:19.827Z,11.10
2019-03-16T15:22:48.921Z,11.50
2019-03-16T15:25:17.937Z,11.60
2019-03-16T15:27:47.020Z,11.60
2019-03-16T15:30:19.081Z,11.60
2019-03-16T15:32:48.175Z,11.60
2019-03-16T15:35:17.478Z,11.60
2019-03-16T15:37:46.783Z,11.50
2019-03-16T15:40:16.523Z,11.40
2019-03-16T15:42:45.871Z,11.30
2019-03-16T15:45:27.017Z,11.30
2019-03-16T15:47:57.708Z,11.30
2019-03-16T15:50:27.013Z,11.20
2019-03-16T15:52:56.311Z,11.20
2019-03-16T15:55:25.821Z,11.20
2019-03-16T15:58:07.022Z,11.20
2019-03-16T16:00:25.756Z,11.20
2019-03-16T16:02:54.885Z,11.30
2019-03-16T16:05:24.454Z,11.40
2019-03-16T16:07:54.375Z,11.40
2019-03-16T16:10:23.881Z,11.40
2019-03-16T16:12:52.902Z,11.40
2019-03-16T16:15:22.285Z,11.30
2019-03-16T16:17:51.389Z,11.30
2019-03-16T16:20:20.884Z,11.20
2019-03-16T16:22:50.102Z,11.20
2019-03-16T16:25:19.576Z,11.20
2019-03-16T16:27:48.920Z,11.10
2019-03-16T16:30:19.677Z,10.90
2019-03-16T16:32:49.179Z,10.90
2019-03-16T16:35:18.436Z,10.90
2019-03-16T16:37:48.158Z,10.90
2019-03-16T16:40:21.952Z,10.80
2019-03-16T16:42:51.256Z,10.70
2019-03-16T16:45:20.676Z,10.70
2019-03-16T16:47:53.029Z,10.70
2019-03-16T16:50:23.364Z,10.70
2019-03-16T16:52:52.657Z,10.70
2019-03-16T16:55:23.189Z,10.60
2019-03-16T16:57:52.692Z,10.50
2019-03-16T17:00:26.949Z,10.40
2019-03-16T17:02:56.559Z,10.50
2019-03-16T17:05:32.771Z,10.50
2019-03-16T17:08:02.097Z,10.40
2019-03-16T17:10:31.390Z,10.50
2019-03-16T17:13:00.672Z,10.40
2019-03-16T17:15:30.092Z,10.40
2019-03-16T17:17:59.598Z,10.40
2019-03-16T17:20:29.050Z,10.40
2019-03-16T17:22:58.611Z,10.30
2019-03-16T17:25:28.602Z,10.30
2019-03-16T17:27:57.829Z,10.30
2019-03-16T17:30:33.005Z,10.20
2019-03-16T17:33:03.065Z,10.20
2019-03-16T17:35:32.120Z,10.30
2019-03-16T17:38:01.902Z,10.00
2019-03-16T17:40:31.429Z,9.90
2019-03-16T17:43:00.643Z,9.90
2019-03-16T17:45:30.028Z,9.70
2019-03-16T17:48:00.779Z,9.60
2019-03-16T17:50:30.253Z,9.70
2019-03-16T17:52:59.394Z,9.60
2019-03-16T17:55:30.488Z,9.50
2019-03-16T17:58:00.419Z,9.60
2019-03-16T18:00:29.861Z,9.40
2019-03-16T18:02:59.164Z,9.40
2019-03-16T18:05:28.868Z,9.20
2019-03-16T18:07:58.304Z,9.00
2019-03-16T18:10:27.634Z,8.70
2019-03-16T18:12:58.363Z,8.50
2019-03-16T18:15:27.665Z,8.40
2019-03-16T18:17:56.767Z,8.20
2019-03-16T18:20:26.066Z,8.10
2019-03-16T18:22:56.958Z,7.90
2019-03-16T18:25:27.007Z,7.70
2019-03-16T18:27:56.322Z,7.50
2019-03-16T18:30:26.482Z,7.30
2019-03-16T18:32:56.001Z,7.20
2019-03-16T18:35:25.495Z,7.10
2019-03-16T18:37:55.810Z,7.10
2019-03-16T18:40:24.913Z,7.10
2019-03-16T18:42:53.995Z,7.00
2019-03-16T18:45:28.991Z,6.70
2019-03-16T18:47:58.219Z,6.50
2019-03-16T18:50:27.513Z,6.20
2019-03-16T18:52:56.915Z,6.00
2019-03-16T18:55:26.060Z,5.90
2019-03-16T18:57:56.181Z,5.70
2019-03-16T19:00:26.649Z,5.50
2019-03-16T19:02:56.300Z,5.50
2019-03-16T19:05:25.675Z,5.40
2019-03-16T19:07:55.121Z,5.30
2019-03-16T19:10:24.486Z,5.10
2019-03-16T19:12:53.788Z,5.20
2019-03-16T19:15:23.498Z,5.20
2019-03-16T19:17:58.980Z,5.10
2019-03-16T19:20:26.639Z,5.10
2019-03-16T19:22:55.836Z,5.30
2019-03-16T19:25:25.414Z,5.30
2019-03-16T19:27:55.948Z,5.10
2019-03-16T19:30:25.397Z,5.00
2019-03-16T19:32:54.367Z,5.00
2019-03-16T19:35:23.641Z,5.00
2019-03-16T19:37:52.842Z,5.00
2019-03-16T19:40:23.178Z,4.80
2019-03-16T19:42:52.402Z,4.60
2019-03-16T19:45:21.738Z,4.60
2019-03-16T19:47:51.283Z,4.50
2019-03-16T19:50:20.684Z,4.50
2019-03-16T19:52:49.811Z,4.40
2019-03-16T19:55:18.873Z,4.30
2019-03-16T19:57:48.050Z,4.10
2019-03-16T20:00:20.347Z,3.90
2019-03-16T20:02:51.553Z,3.90
2019-03-16T20:05:20.509Z,4.00
2019-03-16T20:07:49.909Z,4.10
2019-03-16T20:10:20.244Z,4.10
2019-03-16T20:12:52.733Z,3.90
2019-03-16T20:15:20.458Z,3.80
2019-03-16T20:17:51.011Z,3.70
2019-03-16T20:20:20.287Z,3.70
2019-03-16T20:22:49.711Z,3.70
2019-03-16T20:25:18.889Z,3.70
2019-03-16T20:27:48.123Z,3.60
2019-03-16T20:30:25.995Z,3.70
2019-03-16T20:32:53.746Z,3.70
2019-03-16T20:35:18.786Z,3.50
2019-03-16T20:37:48.595Z,3.40
2019-03-16T20:40:18.224Z,3.30
2019-03-16T20:42:47.584Z,3.30
2019-03-16T20:45:16.747Z,3.30
2019-03-16T20:47:46.596Z,3.10
2019-03-16T20:50:19.867Z,3.10
2019-03-16T20:52:49.092Z,3.00
2019-03-16T20:55:18.498Z,3.10
2019-03-16T20:57:49.557Z,3.10
2019-03-16T21:00:19.657Z,3.10
2019-03-16T21:02:49.165Z,3.10
2019-03-16T21:05:18.484Z,3.20
2019-03-16T21:07:49.411Z,3.20
2019-03-16T21:10:18.503Z,3.10
2019-03-16T21:12:49.238Z,3.10
2019-03-16T21:15:19.664Z,3.20
2019-03-16T21:17:48.972Z,3.40
2019-03-16T21:20:19.254Z,3.20
2019-03-16T21:22:52.291Z,3.10
2019-03-16T21:25:21.684Z,3.10
2019-03-16T21:27:51.089Z,3.20
2019-03-16T21:30:21.267Z,3.10
2019-03-16T21:32:50.720Z,3.00
2019-03-16T21:35:20.018Z,3.10
2019-03-16T21:37:49.113Z,3.10
2019-03-16T21:40:18.415Z,3.00
2019-03-16T21:42:48.769Z,2.90
2019-03-16T21:45:17.939Z,2.80
2019-03-16T21:47:59.104Z,2.90
2019-03-16T21:50:17.988Z,3.20
2019-03-16T21:52:47.072Z,3.50
2019-03-16T21:55:16.582Z,3.50
2019-03-16T21:57:45.778Z,3.60
2019-03-16T22:00:16.325Z,3.40
2019-03-16T22:02:45.609Z,3.20
2019-03-16T22:05:15.120Z,3.10
2019-03-16T22:07:44.420Z,3.10
2019-03-16T22:10:14.538Z,3.10
2019-03-16T22:12:43.719Z,3.10
2019-03-16T22:15:14.162Z,3.20
2019-03-16T22:17:43.075Z,3.30
2019-03-16T22:20:17.068Z,3.20
2019-03-16T22:22:46.168Z,3.50
2019-03-16T22:25:15.055Z,3.50
2019-03-16T22:27:43.947Z,3.30
2019-03-16T22:30:17.139Z,3.30
2019-03-16T22:32:46.244Z,3.40
2019-03-16T22:35:15.344Z,3.30
2019-03-16T22:37:44.312Z,3.20
2019-03-16T22:40:15.169Z,3.30
2019-03-16T22:42:44.469Z,3.10
2019-03-16T22:45:14.599Z,3.00
2019-03-16T22:47:45.926Z,3.00
2019-03-16T22:50:19.747Z,2.90
2019-03-16T22:52:48.636Z,2.90
2019-03-16T22:55:17.529Z,3.10
2019-03-16T22:57:46.832Z,3.00
2019-03-16T23:00:19.925Z,3.10
2019-03-16T23:02:49.017Z,3.20
2019-03-16T23:05:19.243Z,3.30
2019-03-16T23:07:48.131Z,3.20
2019-03-16T23:10:17.229Z,3.30
2019-03-16T23:12:47.459Z,3.30
2019-03-16T23:15:16.950Z,3.50
2019-03-16T23:17:46.055Z,3.30
2019-03-16T23:20:15.354Z,3.60
2019-03-16T23:22:44.451Z,3.30
2019-03-16T23:25:13.549Z,3.30
2019-03-16T23:27:42.417Z,3.40
2019-03-16T23:30:12.573Z,3.20
2019-03-16T23:32:41.554Z,3.00
2019-03-16T23:35:11.062Z,3.10
2019-03-16T23:37:39.954Z,3.00
2019-03-16T23:40:13.741Z,2.90
2019-03-16T23:42:42.840Z,2.70
2019-03-16T23:45:13.285Z,2.80
2019-03-16T23:47:42.264Z,2.70
2019-03-16T23:50:14.589Z,2.60
2019-03-16T23:52:43.646Z,2.50
2019-03-16T23:55:12.949Z,2.30
2019-03-16T23:57:42.047Z,2.10
